Time;durP1;ratioP1;P1;durP2;ratioP2;P2;SDS_P1;SDS_P2;PMS_P1;PMS_P2;Temp;Humidity;BMP_temperature;BMP_pressure;BME280_temperature;BME280_humidity;BME280_pressure;Samples;Min_cycle;Max_cycle;Signal;HPM_P1;HPM_P2
2022/12/23 00:01:31;;;;;;;14.80;2.20;;;;;;;6.97;100.00;99403.38;5109102;28;20397;-69
2022/12/23 00:03:58;;;;;;;14.10;2.05;;;;;;;6.72;100.00;99392.53;5104994;28;20035;-69
2022/12/23 00:06:23;;;;;;;13.65;1.83;;;;;;;6.66;100.00;99396.03;5116623;28;20027;-69
2022/12/23 00:08:56;;;;;;;14.93;2.10;;;;;;;6.76;100.00;99404.47;5103538;28;20024;-69
2022/12/23 00:11:22;;;;;;;16.20;1.50;;;;;;;6.84;100.00;99403.41;5111370;28;20060;-70
2022/12/23 00:16:34;;;;;;;7.88;1.63;;;;;;;6.96;100.00;99417.78;5100309;28;20062;-69
2022/12/23 00:19:00;;;;;;;7.47;1.45;;;;;;;6.93;100.00;99417.38;5104160;28;20027;-70
2022/12/23 00:21:25;;;;;;;6.53;1.40;;;;;;;6.63;100.00;99417.03;5110522;28;20058;-69
2022/12/23 00:23:51;;;;;;;8.07;1.52;;;;;;;6.34;100.00;99425.25;5111765;28;20063;-69
2022/12/23 00:26:17;;;;;;;9.88;1.15;;;;;;;6.18;100.00;99424.81;5102010;28;20039;-71
2022/12/23 00:28:43;;;;;;;10.07;1.98;;;;;;;6.19;100.00;99429.13;5115431;28;20020;-69
2022/12/23 00:31:09;;;;;;;7.38;1.30;;;;;;;6.12;100.00;99431.81;5105788;28;20114;-70
2022/12/23 00:33:38;;;;;;;10.10;1.50;;;;;;;6.08;100.00;99439.41;5108028;28;20119;-69
2022/12/23 00:36:16;;;;;;;13.88;1.65;;;;;;;5.98;100.00;99438.16;5111303;28;20031;-69
2022/12/23 00:44:12;;;;;;;8.00;1.20;;;;;;;5.64;100.00;99423.88;5113700;28;20039;-71
2022/12/23 00:46:38;;;;;;;6.97;1.15;;;;;;;5.79;100.00;99451.22;5100628;28;20032;-69
2022/12/23 00:51:48;;;;;;;8.83;1.03;;;;;;;5.88;100.00;99451.84;5110596;28;20092;-69
2022/12/23 00:54:15;;;;;;;8.88;1.13;;;;;;;5.69;100.00;99431.28;5101696;28;20265;-69
2022/12/23 00:56:41;;;;;;;5.65;0.80;;;;;;;5.63;100.00;99423.06;5095723;28;20118;-69
2022/12/23 00:59:08;;;;;;;9.65;1.05;;;;;;;5.89;100.00;99459.69;5102962;28;20040;-69
2022/12/23 01:07:03;;;;;;;2.85;0.68;;;;;;;5.91;100.00;99466.66;5089771;28;20058;-69
2022/12/23 01:09:32;;;;;;;5.60;0.90;;;;;;;5.83;100.00;99465.81;5108352;28;20028;-69
2022/12/23 01:12:00;;;;;;;8.30;1.02;;;;;;;5.73;100.00;99467.19;5110387;28;20041;-69
2022/12/23 01:14:26;;;;;;;10.20;1.00;;;;;;;5.95;100.00;99479.44;5101228;28;20121;-69
2022/12/23 01:16:51;;;;;;;4.45;0.90;;;;;;;6.00;99.59;99484.19;5111847;28;20055;-69
2022/12/23 01:19:17;;;;;;;4.03;0.98;;;;;;;5.92;99.64;99495.81;5104054;28;20044;-69
2022/12/23 01:21:43;;;;;;;7.25;0.80;;;;;;;5.97;99.75;99495.25;5088813;28;20040;-71
2022/12/23 01:24:08;;;;;;;6.05;1.02;;;;;;;6.00;99.07;99486.84;5113651;28;20034;-69
2022/12/23 01:26:34;;;;;;;2.95;0.60;;;;;;;5.89;99.20;99494.38;5066899;28;20052;-69
2022/12/23 01:29:00;;;;;;;5.65;1.10;;;;;;;6.05;98.25;99495.06;5112821;28;20039;-69
2022/12/23 01:31:27;;;;;;;2.10;0.80;;;;;;;6.01;98.33;99494.66;5105720;28;20032;-69
2022/12/23 01:33:53;;;;;;;4.97;0.57;;;;;;;5.99;98.17;99507.34;5103722;28;20032;-70
2022/12/23 01:36:19;;;;;;;7.13;1.00;;;;;;;5.82;98.56;99504.19;5114395;28;20606;-69
2022/12/23 01:38:45;;;;;;;4.53;0.57;;;;;;;5.55;99.07;99483.78;5100970;28;20102;-69
2022/12/23 01:44:46;;;;;;;1.45;0.55;;;;;;;5.72;98.09;99522.44;5112698;28;20058;-69
2022/12/23 01:47:19;;;;;;;2.50;0.40;;;;;;;5.57;98.04;99511.91;5091365;28;20069;-69
2022/12/23 01:49:46;;;;;;;3.10;0.93;;;;;;;5.49;98.07;99504.06;5105810;28;20045;-69
2022/12/23 01:52:12;;;;;;;8.57;1.13;;;;;;;5.53;97.75;99521.34;5112951;28;20027;-69
2022/12/23 01:54:42;;;;;;;7.15;0.90;;;;;;;5.59;97.47;99523.19;5082802;28;20028;-69
2022/12/23 01:57:07;;;;;;;4.40;0.77;;;;;;;5.54;96.97;99514.97;5111546;28;20504;-69
2022/12/23 02:05:02;;;;;;;4.15;0.82;;;;;;;5.53;97.24;99518.69;5088391;28;20451;-69
2022/12/23 02:10:12;;;;;;;2.95;0.70;;;;;;;5.44;97.28;99524.38;5116001;28;20092;-70
2022/12/23 02:12:43;;;;;;;1.83;0.50;;;;;;;5.30;97.48;99524.28;5084279;28;20487;-69
2022/12/23 02:18:17;;;;;;;3.75;0.70;;;;;;;5.22;98.13;99531.63;5117611;28;20092;-69
2022/12/23 02:21:07;;;;;;;5.43;1.33;;;;;;;5.11;97.96;99541.00;5103869;28;20467;-69
2022/12/23 02:23:39;;;;;;;3.63;0.80;;;;;;;5.18;97.74;99536.53;5111177;28;20099;-69
2022/12/23 02:26:04;;;;;;;3.28;0.60;;;;;;;5.18;97.24;99534.66;5114211;28;20030;-69
2022/12/23 02:28:58;;;;;;;3.40;0.60;;;;;;;5.09;97.98;99543.84;5104030;28;20079;-69
2022/12/23 02:31:32;;;;;;;2.50;0.40;;;;;;;4.91;98.69;99546.19;5110849;28;20107;-69
2022/12/23 02:34:19;;;;;;;2.28;0.57;;;;;;;4.87;98.36;99556.41;5112410;28;20091;-69
2022/12/23 02:37:07;;;;;;;3.58;0.60;;;;;;;4.72;99.23;99542.31;5102239;28;20031;-69
2022/12/23 02:39:41;;;;;;;2.17;0.70;;;;;;;5.01;97.82;99543.19;5110445;28;20020;-69
2022/12/23 02:42:51;;;;;;;3.92;0.68;;;;;;;4.73;98.24;99525.31;5114531;28;20028;-71
2022/12/23 02:45:24;;;;;;;3.05;0.70;;;;;;;4.58;99.13;99536.06;5105510;28;20036;-69
2022/12/23 02:48:00;;;;;;;1.70;0.50;;;;;;;4.63;98.00;99533.63;5106546;28;20032;-69
2022/12/23 02:50:31;;;;;;;4.45;0.50;;;;;;;4.76;98.80;99569.41;5115136;28;20047;-71
2022/12/23 02:53:02;;;;;;;3.97;0.68;;;;;;;4.85;97.87;99573.59;5104546;28;20030;-69
2022/12/23 02:55:33;;;;;;;5.55;0.80;;;;;;;4.69;98.65;99561.34;5110256;28;20364;-69
2022/12/23 02:58:04;;;;;;;2.00;0.45;;;;;;;4.65;99.29;99571.56;5113021;28;20043;-69
2022/12/23 03:00:30;;;;;;;2.45;0.65;;;;;;;4.62;99.34;99590.59;5103373;28;20087;-69
2022/12/23 03:02:55;;;;;;;2.30;0.68;;;;;;;4.34;99.81;99581.69;5114437;28;20105;-69
2022/12/23 03:05:43;;;;;;;4.82;1.02;;;;;;;4.24;100.00;99580.19;5107683;28;20027;-69
2022/12/23 03:08:21;;;;;;;2.17;0.68;;;;;;;4.16;100.00;99569.63;5103619;28;20035;-70
2022/12/23 03:11:04;;;;;;;4.22;1.00;;;;;;;4.30;100.00;99577.75;5116136;28;20016;-69
2022/12/23 03:14:04;;;;;;;2.40;0.60;;;;;;;4.65;100.00;99576.91;5108645;28;20100;-71
2022/12/23 03:16:59;;;;;;;3.47;0.63;;;;;;;4.67;99.11;99582.88;5102813;28;20394;-69
2022/12/23 03:19:36;;;;;;;1.50;0.60;;;;;;;4.47;98.90;99585.34;5110753;28;20032;-69
2022/12/23 03:22:20;;;;;;;2.88;0.68;;;;;;;4.17;98.90;99550.00;5113169;28;20030;-69
2022/12/23 03:25:22;;;;;;;3.75;1.13;;;;;;;4.35;99.63;99600.16;5101172;28;20108;-69
2022/12/23 03:28:06;;;;;;;5.38;1.58;;;;;;;4.53;99.02;99596.25;5096305;28;20040;-69
2022/12/23 03:30:33;;;;;;;3.55;0.60;;;;;;;4.26;99.19;99598.63;5100128;28;20385;-69
2022/12/23 03:33:04;;;;;;;2.58;0.50;;;;;;;4.34;99.80;99587.88;5114144;27;20058;-69
2022/12/23 03:35:50;;;;;;;3.47;0.75;;;;;;;4.43;97.87;99578.72;5108434;28;20034;-71
2022/12/23 03:38:18;;;;;;;0.90;0.22;;;;;;;4.51;98.00;99599.09;5103400;28;20057;-69
2022/12/23 03:40:57;;;;;;;0.93;0.50;;;;;;;4.17;99.62;99608.56;5115517;28;20032;-69
2022/12/23 03:43:32;;;;;;;2.67;0.65;;;;;;;4.37;99.77;99614.13;5105739;28;20425;-69
2022/12/23 03:46:03;;;;;;;3.45;0.60;;;;;;;3.93;100.00;99607.03;5105173;28;20024;-69
2022/12/23 03:48:35;;;;;;;2.20;0.63;;;;;;;3.85;100.00;99616.97;5114067;28;20027;-69
2022/12/23 03:51:11;;;;;;;3.05;0.60;;;;;;;3.81;100.00;99624.50;5103928;28;20385;-69
2022/12/23 03:53:50;;;;;;;3.00;0.40;;;;;;;4.21;99.77;99628.50;5125606;27;20035;-70
2022/12/23 03:56:24;;;;;;;2.33;0.55;;;;;;;4.28;97.52;99606.44;5128175;28;20110;-70
2022/12/23 03:59:11;;;;;;;2.13;0.40;;;;;;;4.52;96.37;99622.06;5090445;28;20034;-70
2022/12/23 04:01:42;;;;;;;1.73;0.50;;;;;;;4.49;96.78;99627.75;5108490;28;20032;-71
2022/12/23 04:04:19;;;;;;;1.25;0.45;;;;;;;3.95;98.49;99631.63;5111579;28;20070;-69
2022/12/23 04:06:58;;;;;;;1.35;0.50;;;;;;;4.01;100.00;99627.41;5102112;28;20032;-69
2022/12/23 04:09:26;;;;;;;2.50;0.50;;;;;;;3.80;99.70;99604.19;5114174;28;20024;-69
2022/12/23 04:11:52;;;;;;;1.90;0.50;;;;;;;3.69;99.95;99578.06;5121856;28;20476;-69
2022/12/23 04:14:19;;;;;;;1.08;0.40;;;;;;;4.03;99.97;99633.38;5114026;28;20048;-70
2022/12/23 04:16:46;;;;;;;1.35;0.60;;;;;;;4.08;99.36;99640.81;5125955;28;20026;-71
2022/12/23 04:19:11;;;;;;;0.60;0.50;;;;;;;4.19;98.49;99643.81;5115525;28;20024;-71
2022/12/23 04:21:37;;;;;;;1.05;0.50;;;;;;;4.47;96.70;99630.63;5101926;28;20047;-69
2022/12/23 04:24:03;;;;;;;0.65;0.35;;;;;;;4.51;95.71;99631.06;5123492;28;20046;-69
2022/12/23 04:26:28;;;;;;;0.82;0.55;;;;;;;4.39;97.18;99643.22;5110851;28;20488;-69
2022/12/23 04:28:53;;;;;;;1.00;0.57;;;;;;;4.39;97.16;99648.56;5125066;28;20044;-69
2022/12/23 04:31:19;;;;;;;1.63;0.60;;;;;;;4.26;97.84;99659.88;5114568;28;20028;-71
2022/12/23 04:33:44;;;;;;;0.82;0.60;;;;;;;3.91;99.12;99629.53;5102665;28;20036;-69
2022/12/23 04:36:10;;;;;;;0.63;0.55;;;;;;;4.33;97.71;99646.63;5105344;28;20115;-70
2022/12/23 04:38:35;;;;;;;0.90;0.50;;;;;;;4.28;97.12;99643.72;5115247;28;20024;-69
2022/12/23 04:41:01;;;;;;;0.65;0.60;;;;;;;3.98;97.62;99639.25;5124805;28;20024;-70
2022/12/23 04:43:26;;;;;;;1.27;0.70;;;;;;;4.19;98.04;99670.44;5119921;28;20067;-70
2022/12/23 04:45:52;;;;;;;0.95;0.80;;;;;;;4.27;97.39;99666.84;5119906;28;20032;-69
2022/12/23 04:48:20;;;;;;;0.63;0.60;;;;;;;4.25;97.40;99679.53;5125137;28;20031;-70
2022/12/23 04:50:45;;;;;;;0.80;0.70;;;;;;;3.72;98.72;99641.56;5111171;28;21259;-73
2022/12/23 04:53:11;;;;;;;1.58;0.80;;;;;;;3.95;98.90;99686.72;5125895;28;20023;-70
2022/12/23 04:55:36;;;;;;;0.85;0.82;;;;;;;4.03;98.20;99677.78;5121329;28;20012;-69
2022/12/23 04:58:04;;;;;;;1.83;0.85;;;;;;;4.20;97.50;99689.88;5100801;28;20047;-70
2022/12/23 05:00:29;;;;;;;1.10;1.00;;;;;;;3.95;97.79;99692.84;5120874;28;20178;-69
2022/12/23 05:02:56;;;;;;;1.40;1.30;;;;;;;3.98;97.42;99694.34;5106294;28;20059;-69
2022/12/23 05:05:21;;;;;;;2.40;1.42;;;;;;;4.07;97.62;99692.38;5112454;28;20069;-70
2022/12/23 05:07:49;;;;;;;1.55;1.25;;;;;;;4.19;97.02;99693.56;5094951;28;20095;-69
2022/12/23 05:10:14;;;;;;;1.85;1.65;;;;;;;4.16;95.98;99676.13;5107833;28;20032;-69
2022/12/23 05:12:40;;;;;;;1.63;1.10;;;;;;;4.38;95.19;99694.84;5112310;28;20031;-71
2022/12/23 05:15:07;;;;;;;2.47;1.20;;;;;;;4.45;95.24;99701.06;5102095;28;20122;-70
2022/12/23 05:17:32;;;;;;;1.38;1.23;;;;;;;4.54;94.50;99699.97;5109070;28;20061;-71
2022/12/23 05:19:58;;;;;;;1.15;0.98;;;;;;;4.57;94.77;99698.75;5108866;28;20032;-71
2022/12/23 05:22:23;;;;;;;1.88;1.17;;;;;;;4.64;94.72;99710.31;5099671;28;20089;-69
2022/12/23 05:24:49;;;;;;;1.13;0.95;;;;;;;4.63;94.21;99709.47;5113985;28;20020;-69
2022/12/23 05:27:14;;;;;;;1.55;0.90;;;;;;;4.61;94.97;99716.84;5113531;28;20032;-70
2022/12/23 05:29:39;;;;;;;1.00;0.52;;;;;;;4.52;95.27;99719.81;5116365;28;20032;-70
2022/12/23 05:32:05;;;;;;;0.80;0.52;;;;;;;4.38;95.60;99708.16;5111304;28;20066;-69
2022/12/23 05:34:30;;;;;;;1.00;0.40;;;;;;;4.12;95.11;99669.53;5098334;28;20057;-69
2022/12/23 05:36:56;;;;;;;0.50;0.40;;;;;;;4.24;95.21;99725.81;5112625;28;20026;-69
2022/12/23 05:39:21;;;;;;;0.30;0.30;;;;;;;4.09;94.83;99722.31;5086403;28;20046;-69
2022/12/23 05:41:46;;;;;;;2.25;0.40;;;;;;;4.21;94.83;99688.91;5106361;28;20482;-70
2022/12/23 05:44:12;;;;;;;0.45;0.40;;;;;;;4.41;94.17;99731.78;5116367;28;20108;-69
2022/12/23 05:46:37;;;;;;;0.40;0.40;;;;;;;4.41;93.72;99716.59;5104371;28;20031;-69
2022/12/23 05:49:03;;;;;;;0.70;0.40;;;;;;;4.17;93.65;99739.03;5115247;28;20028;-69
2022/12/23 05:51:28;;;;;;;0.70;0.50;;;;;;;4.14;93.29;99726.09;5091763;28;20096;-69
2022/12/23 05:53:53;;;;;;;0.43;0.43;;;;;;;4.22;93.38;99739.28;5107930;28;20032;-69
2022/12/23 05:56:19;;;;;;;0.70;0.60;;;;;;;4.16;92.85;99745.34;5116742;28;20028;-69
2022/12/23 05:58:44;;;;;;;0.70;0.57;;;;;;;4.03;93.39;99715.88;5103040;28;20047;-69
2022/12/23 06:01:10;;;;;;;0.90;0.55;;;;;;;4.16;93.37;99744.53;5097227;28;20032;-69
2022/12/23 06:03:35;;;;;;;0.63;0.60;;;;;;;3.94;93.85;99756.91;5108921;28;20032;-69
2022/12/23 06:06:00;;;;;;;1.13;1.02;;;;;;;3.99;92.92;99757.19;5108328;28;20028;-69
2022/12/23 06:08:26;;;;;;;0.80;0.80;;;;;;;4.41;92.06;99755.75;5117253;28;20486;-71
2022/12/23 06:10:51;;;;;;;0.80;0.80;;;;;;;4.03;92.25;99729.19;5103179;28;20036;-69
2022/12/23 06:13:17;;;;;;;1.33;1.10;;;;;;;4.22;90.57;99760.59;5078997;28;20052;-69
2022/12/23 06:15:42;;;;;;;0.93;0.80;;;;;;;4.24;91.70;99779.91;5111303;28;20039;-71
2022/12/23 06:18:08;;;;;;;0.70;0.60;;;;;;;4.36;90.92;99790.91;5106701;28;20043;-69
2022/12/23 06:20:33;;;;;;;1.05;0.40;;;;;;;4.39;91.66;99782.53;5115827;28;20119;-71
2022/12/23 06:22:58;;;;;;;0.70;0.47;;;;;;;4.21;91.24;99788.25;5087193;28;20034;-69
2022/12/23 06:25:24;;;;;;;0.80;0.50;;;;;;;4.01;91.24;99771.16;5111901;28;20411;-69
2022/12/23 06:27:49;;;;;;;0.40;0.30;;;;;;;3.99;92.17;99803.25;5110545;28;20371;-69
2022/12/23 06:30:15;;;;;;;0.95;0.35;;;;;;;3.68;92.67;99798.06;5104392;28;20036;-69
2022/12/23 06:32:40;;;;;;;0.40;0.40;;;;;;;3.96;92.99;99800.13;5115515;28;20039;-69
2022/12/23 06:35:07;;;;;;;0.98;0.50;;;;;;;4.18;91.57;99801.91;5104259;28;20023;-70
2022/12/23 06:37:33;;;;;;;0.50;0.40;;;;;;;4.38;90.74;99798.72;5111072;28;20036;-69
2022/12/23 06:39:58;;;;;;;0.68;0.50;;;;;;;4.16;90.61;99779.97;5111618;28;20024;-69
2022/12/23 06:42:24;;;;;;;1.55;0.57;;;;;;;4.14;90.25;99811.28;5104291;28;20035;-69
2022/12/23 06:44:49;;;;;;;1.08;0.68;;;;;;;4.00;90.39;99817.38;5098402;28;20106;-69
2022/12/23 06:47:15;;;;;;;0.80;0.50;;;;;;;4.31;90.11;99830.59;5115255;28;20039;-69
2022/12/23 06:49:40;;;;;;;0.50;0.30;;;;;;;4.14;90.22;99805.97;5109609;28;20436;-69
2022/12/23 06:52:06;;;;;;;1.75;0.40;;;;;;;4.07;91.18;99842.28;5088517;28;20036;-69
2022/12/23 06:54:31;;;;;;;0.70;0.50;;;;;;;3.97;90.74;99836.38;5114665;28;20035;-72
2022/12/23 06:56:57;;;;;;;0.68;0.50;;;;;;;4.21;90.17;99848.66;5103507;28;20367;-70
2022/12/23 06:59:22;;;;;;;0.63;0.40;;;;;;;4.17;90.37;99853.53;5077182;28;20039;-71
2022/12/23 07:01:47;;;;;;;0.40;0.40;;;;;;;4.25;89.73;99839.28;5092048;28;20057;-71
2022/12/23 07:04:13;;;;;;;0.88;0.40;;;;;;;4.16;90.85;99845.69;5087010;28;20035;-71
2022/12/23 07:06:38;;;;;;;0.50;0.30;;;;;;;4.28;90.12;99849.59;5114762;28;20541;-70
2022/12/23 07:09:05;;;;;;;0.32;0.30;;;;;;;4.11;90.56;99818.81;5101776;28;20132;-71
2022/12/23 07:11:30;;;;;;;0.60;0.40;;;;;;;4.21;90.40;99846.81;5106460;28;20104;-71
2022/12/23 07:13:56;;;;;;;0.60;0.30;;;;;;;3.87;90.97;99833.16;5105863;28;20048;-72
2022/12/23 07:16:21;;;;;;;0.50;0.30;;;;;;;3.55;92.77;99842.22;5114601;28;20055;-73
2022/12/23 07:18:47;;;;;;;0.40;0.30;;;;;;;3.74;92.72;99871.00;5102988;28;20039;-68
2022/12/23 07:21:12;;;;;;;0.32;0.25;;;;;;;3.82;92.49;99872.78;5114590;28;20035;-68
2022/12/23 07:23:37;;;;;;;0.52;0.40;;;;;;;4.00;91.57;99867.97;5108508;28;20039;-68
2022/12/23 07:26:03;;;;;;;1.17;0.30;;;;;;;3.97;91.23;99870.97;5106924;28;20032;-67
2022/12/23 07:28:28;;;;;;;0.50;0.30;;;;;;;3.99;90.70;99882.28;5115468;28;20080;-69
2022/12/23 07:30:54;;;;;;;0.40;0.25;;;;;;;3.71;92.38;99858.91;5085009;28;20136;-69
2022/12/23 07:33:19;;;;;;;0.57;0.30;;;;;;;3.99;92.15;99887.63;5111762;28;20032;-69
2022/12/23 07:35:45;;;;;;;0.38;0.30;;;;;;;4.18;91.15;99889.78;5108852;28;20036;-68
2022/12/23 07:38:10;;;;;;;0.40;0.40;;;;;;;4.14;91.25;99901.81;5087478;28;20483;-68
2022/12/23 07:40:36;;;;;;;0.40;0.30;;;;;;;4.20;91.20;99902.91;5123377;28;20035;-76
2022/12/23 07:43:01;;;;;;;0.30;0.30;;;;;;;4.14;90.95;99888.50;5115916;28;20088;-70
2022/12/23 07:45:28;;;;;;;0.30;0.25;;;;;;;4.17;91.25;99919.22;5111897;28;20028;-69
2022/12/23 07:47:56;;;;;;;0.30;0.28;;;;;;;3.88;91.52;99886.22;5109016;28;20059;-68
2022/12/23 07:50:21;;;;;;;1.13;0.10;;;;;;;3.85;91.57;99889.22;5103740;28;20376;-69
2022/12/23 07:52:47;;;;;;;0.40;0.20;;;;;;;3.72;92.15;99908.44;5115135;28;20061;-69
2022/12/23 07:55:12;;;;;;;0.57;0.30;;;;;;;3.56;92.65;99889.09;5107889;28;20498;-69
2022/12/23 07:57:39;;;;;;;0.52;0.20;;;;;;;3.82;92.38;99934.00;5112233;28;20036;-69
2022/12/23 08:00:25;;;;;;;1.83;0.50;;;;;;;3.80;92.26;99938.66;5115546;28;20112;-69
2022/12/23 08:02:50;;;;;;;0.20;0.20;;;;;;;3.80;92.47;99942.13;5062339;28;20135;-72
2022/12/23 08:05:16;;;;;;;0.47;0.20;;;;;;;3.68;92.81;99928.41;5068393;28;20417;-70
2022/12/23 08:07:43;;;;;;;0.70;0.30;;;;;;;3.64;93.62;99948.41;5048430;28;20048;-70
2022/12/23 08:10:09;;;;;;;0.98;0.20;;;;;;;3.75;92.79;99944.50;5062353;28;20044;-71
2022/12/23 08:12:35;;;;;;;0.50;0.20;;;;;;;3.82;92.19;99955.28;5071793;28;20044;-71
2022/12/23 08:15:00;;;;;;;0.50;0.28;;;;;;;3.58;93.85;99956.25;5060414;28;20047;-71
2022/12/23 08:17:28;;;;;;;0.40;0.20;;;;;;;3.72;93.09;99958.16;5068800;28;20057;-74
2022/12/23 08:19:53;;;;;;;0.60;0.10;;;;;;;3.59;93.22;99966.72;5066511;28;20393;-74
2022/12/23 08:22:19;;;;;;;0.20;0.20;;;;;;;3.54;94.12;99966.38;5060139;28;20045;-73
2022/12/23 08:24:44;;;;;;;0.40;0.20;;;;;;;3.36;95.21;99976.47;5071924;28;20586;-73
2022/12/23 08:27:10;;;;;;;0.20;0.10;;;;;;;3.46;94.96;99974.41;5060544;28;20403;-73
2022/12/23 08:29:35;;;;;;;2.05;0.20;;;;;;;2.97;96.79;99946.19;5066118;28;20040;-74
2022/12/23 08:32:00;;;;;;;0.32;0.20;;;;;;;3.15;97.28;99948.63;5067048;28;20032;-70
2022/12/23 08:34:26;;;;;;;0.30;0.20;;;;;;;3.39;97.13;99966.31;5090618;28;20040;-72
2022/12/23 08:36:51;;;;;;;0.35;0.17;;;;;;;3.30;96.51;99962.03;5095695;28;20114;-72
2022/12/23 08:39:17;;;;;;;1.23;0.30;;;;;;;3.51;96.44;99985.38;5103716;28;20035;-72
2022/12/23 08:41:45;;;;;;;2.40;0.30;;;;;;;3.82;94.85;99981.88;5106410;28;20047;-72
2022/12/23 08:44:11;;;;;;;2.35;0.30;;;;;;;3.75;94.21;99971.13;5102458;28;20097;-72
2022/12/23 08:46:36;;;;;;;0.25;0.10;;;;;;;3.79;94.29;99984.91;5096796;28;20024;-72
2022/12/23 08:49:03;;;;;;;0.98;0.57;;;;;;;3.84;94.40;99979.88;5095933;28;20031;-72
2022/12/23 08:51:28;;;;;;;0.45;0.20;;;;;;;3.72;94.50;99980.28;5095606;28;20032;-72
2022/12/23 08:53:56;;;;;;;1.52;0.38;;;;;;;3.73;95.55;99995.22;5095637;28;20047;-72
2022/12/23 08:56:23;;;;;;;0.90;0.40;;;;;;;3.80;95.79;99991.88;5095193;28;20031;-72
2022/12/23 08:58:51;;;;;;;1.95;0.30;;;;;;;3.69;96.90;99999.25;5095192;28;20084;-72
2022/12/23 09:01:19;;;;;;;2.78;0.20;;;;;;;3.53;97.05;100005.47;5097309;28;20447;-72
2022/12/23 09:03:45;;;;;;;0.20;0.17;;;;;;;3.63;96.65;100015.06;5095608;28;20016;-72
2022/12/23 09:06:19;;;;;;;0.60;0.30;;;;;;;3.33;98.05;100019.34;5093004;28;20031;-73
2022/12/23 09:08:45;;;;;;;1.00;0.50;;;;;;;3.20;99.31;100026.03;5100732;28;20035;-71
2022/12/23 09:11:17;;;;;;;7.45;4.07;;;;;;;3.17;99.35;100014.91;5105783;28;20036;-72
2022/12/23 09:13:43;;;;;;;7.82;4.13;;;;;;;3.00;99.30;99995.50;5099080;28;20052;-72
2022/12/23 09:16:09;;;;;;;7.70;4.22;;;;;;;3.18;99.78;100035.16;5098928;28;20050;-72
2022/12/23 09:18:35;;;;;;;6.28;3.55;;;;;;;2.86;100.00;99990.91;5099644;28;20028;-72
2022/12/23 09:21:05;;;;;;;6.55;4.03;;;;;;;3.32;98.64;100036.31;5099180;28;20031;-72
2022/12/23 09:23:31;;;;;;;3.13;1.90;;;;;;;3.13;98.94;100040.19;5097482;28;20051;-72
2022/12/23 09:25:57;;;;;;;0.77;0.40;;;;;;;2.86;99.11;100038.72;5099132;28;20046;-72
2022/12/23 09:28:25;;;;;;;1.63;0.93;;;;;;;3.10;98.78;100041.34;5098490;28;20028;-72
2022/12/23 09:30:51;;;;;;;2.88;1.50;;;;;;;3.11;98.85;100045.66;5083388;28;20032;-74
2022/12/23 09:33:17;;;;;;;4.20;2.60;;;;;;;2.75;100.00;100042.56;5099206;28;20390;-74
2022/12/23 09:35:43;;;;;;;4.13;2.40;;;;;;;3.02;99.04;100055.47;5106439;28;20038;-72
2022/12/23 09:38:09;;;;;;;1.83;1.20;;;;;;;3.12;98.21;100043.84;5085507;28;20130;-72
2022/12/23 09:40:36;;;;;;;1.20;0.60;;;;;;;3.11;98.00;100044.81;5112249;28;20451;-72
2022/12/23 09:43:35;;;;;;;0.65;0.20;;;;;;;3.20;97.15;100039.31;5100602;28;20394;-72
2022/12/23 09:46:16;;;;;;;0.38;0.10;;;;;;;3.40;95.98;100046.91;5106765;28;20020;-72
2022/12/23 09:48:50;;;;;;;0.77;0.28;;;;;;;3.23;95.75;100023.03;5114458;28;20031;-73
2022/12/23 09:51:21;;;;;;;0.43;0.20;;;;;;;3.50;95.55;100055.53;5104189;28;20382;-72
2022/12/23 09:54:15;;;;;;;0.30;0.25;;;;;;;3.57;94.35;100047.69;5109214;28;20035;-72
2022/12/23 09:57:01;;;;;;;1.03;0.30;;;;;;;3.50;94.10;100044.88;5110351;28;20039;-72
2022/12/23 09:59:35;;;;;;;;;;;;;;;3.50;93.54;100052.84;5095612;28;20114;-72
2022/12/23 10:02:25;;;;;;;0.77;0.20;;;;;;;3.60;93.19;100047.34;5108551;28;19937;-74
2022/12/23 10:04:55;;;;;;;0.30;0.30;;;;;;;3.36;92.18;100046.44;5098481;28;20403;-72
2022/12/23 10:07:30;;;;;;;0.45;0.20;;;;;;;3.47;92.02;100038.06;5111660;28;20182;-72
2022/12/23 10:09:58;;;;;;;0.52;0.20;;;;;;;3.40;92.95;100031.78;5109282;28;20049;-71
2022/12/23 10:12:46;;;;;;;1.00;0.20;;;;;;;3.55;92.33;100055.03;5101003;28;20054;-72
2022/12/23 10:15:28;;;;;;;0.22;0.22;;;;;;;3.56;91.94;100052.19;5085649;28;20104;-71
2022/12/23 10:17:57;;;;;;;0.17;0.17;;;;;;;3.43;91.61;100047.41;5103645;28;20408;-70
2022/12/23 10:20:38;;;;;;;0.73;0.22;;;;;;;3.57;91.24;100063.63;5109883;28;20149;-70
2022/12/23 10:23:14;;;;;;;0.30;0.20;;;;;;;3.75;89.75;100067.72;5082631;28;20046;-70
2022/12/23 10:25:48;;;;;;;0.88;0.20;;;;;;;3.68;90.22;100076.59;5106077;28;20032;-71
2022/12/23 10:28:13;;;;;;;0.43;0.20;;;;;;;3.21;91.05;100048.13;5109758;28;20048;-70
2022/12/23 10:30:41;;;;;;;0.75;0.20;;;;;;;3.45;91.37;100077.31;5099904;28;20040;-70
2022/12/23 10:33:26;;;;;;;0.55;0.22;;;;;;;3.58;90.79;100091.94;5113495;28;20027;-70
2022/12/23 10:35:54;;;;;;;0.60;0.20;;;;;;;3.69;90.80;100089.72;5109165;28;20053;-70
2022/12/23 10:38:20;;;;;;;0.50;0.30;;;;;;;3.48;91.01;100086.78;5102000;28;20376;-70
2022/12/23 10:40:59;;;;;;;0.30;0.20;;;;;;;3.35;91.54;100097.13;5114886;28;20111;-70
2022/12/23 10:43:46;;;;;;;0.30;0.20;;;;;;;3.50;90.43;100090.91;5105390;28;20097;-70
2022/12/23 10:46:49;;;;;;;0.57;0.30;;;;;;;3.56;89.79;100097.41;5106928;28;20023;-70
2022/12/23 10:49:36;;;;;;;0.60;0.20;;;;;;;3.42;90.27;100092.78;5089712;28;20057;-72
2022/12/23 10:52:14;;;;;;;0.85;0.20;;;;;;;3.44;90.11;100096.91;5108417;28;20444;-70
2022/12/23 10:54:42;;;;;;;0.32;0.20;;;;;;;3.43;90.72;100107.75;5117032;28;20434;-70
2022/12/23 10:57:09;;;;;;;0.88;0.30;;;;;;;3.26;90.17;100067.88;5104442;28;20027;-72
2022/12/23 10:59:35;;;;;;;0.93;0.30;;;;;;;3.29;90.47;100106.59;5110141;28;20050;-70
2022/12/23 11:02:12;;;;;;;0.32;0.20;;;;;;;3.48;89.80;100118.72;5110669;28;20048;-73
2022/12/23 11:04:39;;;;;;;1.25;0.20;;;;;;;3.36;89.59;100120.06;5102928;28;20052;-71
2022/12/23 11:07:07;;;;;;;0.75;0.22;;;;;;;3.44;89.14;100117.38;5115817;28;20402;-70
2022/12/23 11:09:43;;;;;;;2.40;0.30;;;;;;;3.03;88.42;100081.06;5106532;28;20049;-69
2022/12/23 11:12:10;;;;;;;0.68;0.30;;;;;;;3.23;89.24;100117.91;5105323;28;20032;-69
2022/12/23 11:14:37;;;;;;;1.40;0.35;;;;;;;3.39;89.73;100125.03;5114574;28;20032;-70
2022/12/23 11:17:04;;;;;;;1.48;0.40;;;;;;;3.31;88.89;100123.22;5103053;28;20038;-70
2022/12/23 11:19:30;;;;;;;1.27;0.30;;;;;;;3.18;88.68;100133.53;5110371;28;20081;-69
2022/12/23 11:21:58;;;;;;;0.57;0.20;;;;;;;3.18;89.24;100138.84;5109491;28;20031;-70
2022/12/23 11:24:26;;;;;;;0.52;0.28;;;;;;;3.23;88.58;100142.66;5103355;28;20386;-71
2022/12/23 11:27:10;;;;;;;1.20;0.22;;;;;;;3.01;88.71;100096.34;5114581;28;20058;-71
2022/12/23 11:30:05;;;;;;;0.38;0.15;;;;;;;3.33;88.92;100121.22;5107965;28;20363;-73
2022/12/23 11:32:30;;;;;;;0.68;0.20;;;;;;;3.39;87.84;100146.31;5063244;28;20450;-71
2022/12/23 11:34:56;;;;;;;0.28;0.10;;;;;;;3.42;88.14;100145.97;5093523;28;20044;-70
2022/12/23 11:37:34;;;;;;;0.82;0.20;;;;;;;3.38;85.76;100145.50;5083156;28;20044;-71
2022/12/23 11:39:59;;;;;;;0.55;0.30;;;;;;;3.22;85.63;100113.59;5085485;28;20471;-71
2022/12/23 11:42:29;;;;;;;0.30;0.20;;;;;;;3.38;84.78;100144.63;5075056;28;20059;-71
2022/12/23 11:44:58;;;;;;;1.17;0.30;;;;;;;3.25;85.38;100156.63;5080089;28;20041;-71
2022/12/23 11:47:25;;;;;;;0.40;0.20;;;;;;;3.15;84.22;100163.97;5073181;28;20034;-70
2022/12/23 11:49:59;;;;;;;0.38;0.20;;;;;;;3.33;85.00;100165.59;5070708;28;20028;-70
2022/12/23 11:52:29;;;;;;;0.27;0.20;;;;;;;3.32;84.48;100166.59;5064458;28;20049;-71
2022/12/23 11:55:03;;;;;;;0.93;0.30;;;;;;;3.13;83.94;100173.91;5093324;28;20552;-71
2022/12/23 11:57:47;;;;;;;0.47;0.20;;;;;;;2.98;83.90;100178.22;5083395;28;20449;-70
2022/12/23 12:00:29;;;;;;;0.47;0.30;;;;;;;3.06;84.30;100184.38;5066504;28;20495;-71
2022/12/23 12:02:59;;;;;;;0.45;0.30;;;;;;;3.14;85.16;100183.53;5083054;28;20058;-70
2022/12/23 12:05:30;;;;;;;0.77;0.38;;;;;;;2.98;84.71;100175.56;5104847;28;20031;-70
2022/12/23 12:08:02;;;;;;;0.45;0.28;;;;;;;3.11;85.08;100191.03;5106180;28;20053;-71
2022/12/23 12:10:31;;;;;;;0.30;0.20;;;;;;;3.06;84.32;100186.22;5113526;28;20470;-70
2022/12/23 12:13:24;;;;;;;0.82;0.40;;;;;;;3.03;84.10;100194.50;5099471;28;20038;-69
2022/12/23 12:16:11;;;;;;;0.68;0.43;;;;;;;3.27;84.37;100188.38;5106121;28;20038;-70
2022/12/23 12:18:40;;;;;;;0.75;0.30;;;;;;;3.25;84.68;100187.72;5114356;28;20424;-69
2022/12/23 12:21:11;;;;;;;0.68;0.40;;;;;;;3.23;84.02;100181.72;5100485;28;20106;-70
2022/12/23 12:23:45;;;;;;;0.95;0.50;;;;;;;3.11;83.74;100185.69;5109479;28;20032;-69